world map with ESMS marked

ESMS - Airport

This information may not be accurate or current and is not valid for navigation or flight planning. No warranty of fitness for any purpose is made or implied.

flag of Sweden

Donate via PayPal

Additional information is available on the NEW Great Circle Mapper

Location
City:  Malmö, Skåne län, Sweden
Name:Malmö-Sturup Airport
ICAO / IATA:ESMS / MMX

Details
Type:Airport (Aerodrome, Airfield)
Use:Public/Civil
Latitude:55°31'49"N (55.530193)
Longitude:13°22'18"E (13.371639)
Datum:WGS 1984
Elevation:236 ft (72 m)
Runways:2
Longest:9186 × 148 ft (2800 × 45 m)

Time
Timezone:UTC+1 (DST+4)
Local Time:

Weather
METAR:ESMS  170250Z VRB02KT 9999 OVC025 M01/M02 Q1016 R17/29//95
TAF:ESMS  162301Z 1700/1724 17005KT 9999 OVC025

Related Locations
Nearby:
Farthest:CHT: 11512 mi / 18526 km
Waitangi [Tuuta], CIT, NZ

Find:

   beyond  
but within

Other Information
Maps:
Links:
Sources:

  


 


Great Circle Mapper   Great Circle Mapper
Great Circle Mapper FAQ   Great Circle Mapper FAQ
  Karl's Home Page
KLS²   KLS² Home
   GC on Facebook
Airlines of the World   Airlines of the World
Donate via PayPal


Copyright © 2004-2018, Karl L. Swartz. All rights reserved.
All trademarks mentioned herein belong to their respective owners.

Please see credits for attribution and copyright information.

Karl Swartz <karl@kls2.com>
  Powered by FreeBSD
Valid HTML 4.01!
Labeled with ICRA
hCard Microformat
Geo Microformat